sensor_id;sensor_type;location;lat;lon;timestamp;temperature;humidity
63537;DHT22;49686;51.880;5.632;2023-07-29T00:01:29;16.30;99.90
63537;DHT22;49686;51.880;5.632;2023-07-29T00:03:55;16.30;99.90
63537;DHT22;49686;51.880;5.632;2023-07-29T00:06:24;16.30;99.90
63537;DHT22;49686;51.880;5.632;2023-07-29T00:08:50;16.40;99.90
63537;DHT22;49686;51.880;5.632;2023-07-29T00:11:17;16.40;99.90
63537;DHT22;49686;51.880;5.632;2023-07-29T00:13:44;16.30;99.90
63537;DHT22;49686;51.880;5.632;2023-07-29T00:16:11;16.30;99.90
63537;DHT22;49686;51.880;5.632;2023-07-29T00:18:38;16.30;99.90
63537;DHT22;49686;51.880;5.632;2023-07-29T00:21:05;16.30;99.90
63537;DHT22;49686;51.880;5.632;2023-07-29T00:23:33;16.20;99.90
63537;DHT22;49686;51.880;5.632;2023-07-29T00:26:00;16.20;99.90
63537;DHT22;49686;51.880;5.632;2023-07-29T00:28:26;16.20;99.90
63537;DHT22;49686;51.880;5.632;2023-07-29T00:30:53;16.10;99.90
63537;DHT22;49686;51.880;5.632;2023-07-29T00:33:20;16.10;99.90
63537;DHT22;49686;51.880;5.632;2023-07-29T00:35:47;16.00;99.90
63537;DHT22;49686;51.880;5.632;2023-07-29T00:38:14;15.90;99.90
63537;DHT22;49686;51.880;5.632;2023-07-29T00:40:42;15.90;99.90
63537;DHT22;49686;51.880;5.632;2023-07-29T00:43:09;15.90;99.90
63537;DHT22;49686;51.880;5.632;2023-07-29T00:45:36;15.90;99.90
63537;DHT22;49686;51.880;5.632;2023-07-29T00:48:04;15.90;99.90
63537;DHT22;49686;51.880;5.632;2023-07-29T00:50:32;16.00;99.90
63537;DHT22;49686;51.880;5.632;2023-07-29T00:52:59;16.00;99.90
63537;DHT22;49686;51.880;5.632;2023-07-29T00:55:26;16.00;99.90
63537;DHT22;49686;51.880;5.632;2023-07-29T00:57:55;16.10;99.90
63537;DHT22;49686;51.880;5.632;2023-07-29T01:00:22;16.30;99.90
63537;DHT22;49686;51.880;5.632;2023-07-29T01:02:49;16.40;99.90
63537;DHT22;49686;51.880;5.632;2023-07-29T01:05:16;16.40;99.90
63537;DHT22;49686;51.880;5.632;2023-07-29T01:07:48;16.50;99.90
63537;DHT22;49686;51.880;5.632;2023-07-29T01:10:22;16.50;99.90
63537;DHT22;49686;51.880;5.632;2023-07-29T01:13:00;16.50;99.90
63537;DHT22;49686;51.880;5.632;2023-07-29T01:15:33;16.50;99.90
63537;DHT22;49686;51.880;5.632;2023-07-29T01:18:05;16.50;99.90
63537;DHT22;49686;51.880;5.632;2023-07-29T01:20:34;16.50;99.90
63537;DHT22;49686;51.880;5.632;2023-07-29T01:23:03;16.50;99.90
63537;DHT22;49686;51.880;5.632;2023-07-29T01:25:31;16.60;99.90
63537;DHT22;49686;51.880;5.632;2023-07-29T01:27:58;16.50;99.90
63537;DHT22;49686;51.880;5.632;2023-07-29T01:30:28;16.50;99.90
63537;DHT22;49686;51.880;5.632;2023-07-29T01:33:02;16.50;99.90
63537;DHT22;49686;51.880;5.632;2023-07-29T01:35:35;16.50;99.90
63537;DHT22;49686;51.880;5.632;2023-07-29T01:38:04;16.50;99.90
63537;DHT22;49686;51.880;5.632;2023-07-29T01:40:33;16.50;99.90
63537;DHT22;49686;51.880;5.632;2023-07-29T01:43:00;16.50;99.90
63537;DHT22;49686;51.880;5.632;2023-07-29T01:45:27;16.40;99.90
63537;DHT22;49686;51.880;5.632;2023-07-29T01:47:55;16.50;99.90
63537;DHT22;49686;51.880;5.632;2023-07-29T01:50:22;16.50;99.90
63537;DHT22;49686;51.880;5.632;2023-07-29T01:52:49;16.50;99.90
63537;DHT22;49686;51.880;5.632;2023-07-29T01:55:16;16.50;99.90
63537;DHT22;49686;51.880;5.632;2023-07-29T01:57:44;16.60;99.90
63537;DHT22;49686;51.880;5.632;2023-07-29T02:00:11;16.60;99.90
63537;DHT22;49686;51.880;5.632;2023-07-29T02:02:38;16.60;99.90
63537;DHT22;49686;51.880;5.632;2023-07-29T02:05:05;16.70;99.90
63537;DHT22;49686;51.880;5.632;2023-07-29T02:07:32;16.70;99.90
63537;DHT22;49686;51.880;5.632;2023-07-29T02:09:59;16.70;99.90
63537;DHT22;49686;51.880;5.632;2023-07-29T02:12:26;16.70;99.90
63537;DHT22;49686;51.880;5.632;2023-07-29T02:14:54;16.80;99.90
63537;DHT22;49686;51.880;5.632;2023-07-29T02:17:21;16.80;99.90
63537;DHT22;49686;51.880;5.632;2023-07-29T02:19:48;16.80;99.90
63537;DHT22;49686;51.880;5.632;2023-07-29T02:22:16;16.90;99.90
63537;DHT22;49686;51.880;5.632;2023-07-29T02:24:43;16.90;99.90
63537;DHT22;49686;51.880;5.632;2023-07-29T02:27:10;17.00;99.90
63537;DHT22;49686;51.880;5.632;2023-07-29T02:29:37;17.10;99.90
63537;DHT22;49686;51.880;5.632;2023-07-29T02:32:05;17.10;99.90
63537;DHT22;49686;51.880;5.632;2023-07-29T02:34:32;17.10;99.90
63537;DHT22;49686;51.880;5.632;2023-07-29T02:36:59;17.10;99.90
63537;DHT22;49686;51.880;5.632;2023-07-29T02:39:26;17.10;99.90
63537;DHT22;49686;51.880;5.632;2023-07-29T02:41:53;17.10;99.90
63537;DHT22;49686;51.880;5.632;2023-07-29T02:44:20;17.10;99.90
63537;DHT22;49686;51.880;5.632;2023-07-29T02:46:47;17.00;99.90
63537;DHT22;49686;51.880;5.632;2023-07-29T02:49:15;17.00;99.90
63537;DHT22;49686;51.880;5.632;2023-07-29T02:51:43;17.00;99.90
63537;DHT22;49686;51.880;5.632;2023-07-29T02:54:10;17.00;99.90
63537;DHT22;49686;51.880;5.632;2023-07-29T02:56:36;17.00;99.90
63537;DHT22;49686;51.880;5.632;2023-07-29T02:59:04;17.00;99.90
63537;DHT22;49686;51.880;5.632;2023-07-29T03:01:31;16.90;99.90
63537;DHT22;49686;51.880;5.632;2023-07-29T03:03:58;16.90;99.90
63537;DHT22;49686;51.880;5.632;2023-07-29T03:06:26;16.90;99.90
63537;DHT22;49686;51.880;5.632;2023-07-29T03:08:53;16.90;99.90
63537;DHT22;49686;51.880;5.632;2023-07-29T03:11:20;16.90;99.90
63537;DHT22;49686;51.880;5.632;2023-07-29T03:13:47;16.90;99.90
63537;DHT22;49686;51.880;5.632;2023-07-29T03:16:15;16.90;99.90
63537;DHT22;49686;51.880;5.632;2023-07-29T03:18:43;16.90;99.90
63537;DHT22;49686;51.880;5.632;2023-07-29T03:21:11;16.80;99.90
63537;DHT22;49686;51.880;5.632;2023-07-29T03:23:39;16.80;99.90
63537;DHT22;49686;51.880;5.632;2023-07-29T03:26:06;16.70;99.90
63537;DHT22;49686;51.880;5.632;2023-07-29T03:28:33;16.70;99.90
63537;DHT22;49686;51.880;5.632;2023-07-29T03:31:00;16.60;99.90
63537;DHT22;49686;51.880;5.632;2023-07-29T03:33:27;16.60;99.90
63537;DHT22;49686;51.880;5.632;2023-07-29T03:35:54;16.60;99.90
63537;DHT22;49686;51.880;5.632;2023-07-29T03:38:21;16.60;99.90
63537;DHT22;49686;51.880;5.632;2023-07-29T03:40:50;16.50;99.90
63537;DHT22;49686;51.880;5.632;2023-07-29T03:43:17;16.40;99.90
63537;DHT22;49686;51.880;5.632;2023-07-29T03:45:43;16.50;99.90
63537;DHT22;49686;51.880;5.632;2023-07-29T03:48:10;16.40;99.90
63537;DHT22;49686;51.880;5.632;2023-07-29T03:50:37;16.40;99.90
63537;DHT22;49686;51.880;5.632;2023-07-29T03:53:04;16.40;99.90
63537;DHT22;49686;51.880;5.632;2023-07-29T03:55:31;16.40;99.90
63537;DHT22;49686;51.880;5.632;2023-07-29T03:58:00;16.30;99.90
63537;DHT22;49686;51.880;5.632;2023-07-29T04:00:27;16.30;99.90
63537;DHT22;49686;51.880;5.632;2023-07-29T04:02:54;16.30;99.90
63537;DHT22;49686;51.880;5.632;2023-07-29T04:05:21;16.30;99.90
63537;DHT22;49686;51.880;5.632;2023-07-29T04:07:49;16.30;99.90
63537;DHT22;49686;51.880;5.632;2023-07-29T04:10:16;16.20;99.90
63537;DHT22;49686;51.880;5.632;2023-07-29T04:12:43;16.20;99.90
63537;DHT22;49686;51.880;5.632;2023-07-29T04:15:11;16.20;99.90
63537;DHT22;49686;51.880;5.632;2023-07-29T04:17:38;16.10;99.90
63537;DHT22;49686;51.880;5.632;2023-07-29T04:20:06;16.10;99.90
63537;DHT22;49686;51.880;5.632;2023-07-29T04:22:33;16.10;99.90
63537;DHT22;49686;51.880;5.632;2023-07-29T04:25:00;16.10;99.90
63537;DHT22;49686;51.880;5.632;2023-07-29T04:27:27;16.10;99.90
63537;DHT22;49686;51.880;5.632;2023-07-29T04:29:56;16.00;99.90
63537;DHT22;49686;51.880;5.632;2023-07-29T04:32:24;16.00;99.90
63537;DHT22;49686;51.880;5.632;2023-07-29T04:34:51;16.00;99.90
63537;DHT22;49686;51.880;5.632;2023-07-29T04:37:18;16.00;99.90
63537;DHT22;49686;51.880;5.632;2023-07-29T04:39:45;16.00;99.90
63537;DHT22;49686;51.880;5.632;2023-07-29T04:42:12;16.10;99.90
63537;DHT22;49686;51.880;5.632;2023-07-29T04:44:38;16.10;99.90
63537;DHT22;49686;51.880;5.632;2023-07-29T04:47:05;16.10;99.90
63537;DHT22;49686;51.880;5.632;2023-07-29T04:49:33;16.10;99.90
63537;DHT22;49686;51.880;5.632;2023-07-29T04:52:00;16.20;99.90
63537;DHT22;49686;51.880;5.632;2023-07-29T04:54:27;16.20;99.90
63537;DHT22;49686;51.880;5.632;2023-07-29T04:56:54;16.20;99.90
63537;DHT22;49686;51.880;5.632;2023-07-29T04:59:21;16.20;99.90
63537;DHT22;49686;51.880;5.632;2023-07-29T05:01:47;16.20;99.90
63537;DHT22;49686;51.880;5.632;2023-07-29T05:04:15;16.20;99.90
63537;DHT22;49686;51.880;5.632;2023-07-29T05:06:43;16.30;99.90
63537;DHT22;49686;51.880;5.632;2023-07-29T05:09:15;16.30;99.90
63537;DHT22;49686;51.880;5.632;2023-07-29T05:11:42;16.40;99.90
63537;DHT22;49686;51.880;5.632;2023-07-29T05:14:09;16.40;99.90
63537;DHT22;49686;51.880;5.632;2023-07-29T05:16:36;16.40;99.90
63537;DHT22;49686;51.880;5.632;2023-07-29T05:19:03;16.50;99.90
63537;DHT22;49686;51.880;5.632;2023-07-29T05:21:30;16.40;99.90
63537;DHT22;49686;51.880;5.632;2023-07-29T05:23:58;16.50;99.90
63537;DHT22;49686;51.880;5.632;2023-07-29T05:26:25;16.50;99.90
63537;DHT22;49686;51.880;5.632;2023-07-29T05:28:52;16.50;99.90
63537;DHT22;49686;51.880;5.632;2023-07-29T05:31:18;16.50;99.90
63537;DHT22;49686;51.880;5.632;2023-07-29T05:33:45;16.50;99.90
63537;DHT22;49686;51.880;5.632;2023-07-29T05:36:12;16.50;99.90
63537;DHT22;49686;51.880;5.632;2023-07-29T05:38:39;16.50;99.90
63537;DHT22;49686;51.880;5.632;2023-07-29T05:41:07;16.60;99.90
63537;DHT22;49686;51.880;5.632;2023-07-29T05:43:34;16.70;99.90
63537;DHT22;49686;51.880;5.632;2023-07-29T05:46:01;16.70;99.90
63537;DHT22;49686;51.880;5.632;2023-07-29T05:48:28;16.80;99.90
63537;DHT22;49686;51.880;5.632;2023-07-29T05:50:55;16.80;99.90
63537;DHT22;49686;51.880;5.632;2023-07-29T05:53:21;16.80;99.90
63537;DHT22;49686;51.880;5.632;2023-07-29T05:55:48;16.80;99.90
63537;DHT22;49686;51.880;5.632;2023-07-29T05:58:17;17.00;99.90
63537;DHT22;49686;51.880;5.632;2023-07-29T06:00:43;17.00;99.90
63537;DHT22;49686;51.880;5.632;2023-07-29T06:03:10;17.10;99.90
63537;DHT22;49686;51.880;5.632;2023-07-29T06:05:37;17.20;99.90
63537;DHT22;49686;51.880;5.632;2023-07-29T06:08:04;17.40;99.90
63537;DHT22;49686;51.880;5.632;2023-07-29T06:10:31;17.80;99.90
63537;DHT22;49686;51.880;5.632;2023-07-29T06:12:58;18.40;99.90
63537;DHT22;49686;51.880;5.632;2023-07-29T06:15:26;19.00;99.90
63537;DHT22;49686;51.880;5.632;2023-07-29T06:17:53;19.50;99.90
63537;DHT22;49686;51.880;5.632;2023-07-29T06:20:23;20.70;99.90
63537;DHT22;49686;51.880;5.632;2023-07-29T06:22:50;20.10;99.90
63537;DHT22;49686;51.880;5.632;2023-07-29T06:25:17;20.20;99.90
63537;DHT22;49686;51.880;5.632;2023-07-29T06:27:44;20.40;99.90
63537;DHT22;49686;51.880;5.632;2023-07-29T06:30:11;20.00;99.90
63537;DHT22;49686;51.880;5.632;2023-07-29T06:32:39;19.60;99.90
63537;DHT22;49686;51.880;5.632;2023-07-29T06:35:06;19.60;99.90
63537;DHT22;49686;51.880;5.632;2023-07-29T06:37:33;20.20;99.90
63537;DHT22;49686;51.880;5.632;2023-07-29T06:40:00;21.00;99.90
63537;DHT22;49686;51.880;5.632;2023-07-29T06:42:27;20.70;99.90
63537;DHT22;49686;51.880;5.632;2023-07-29T06:44:54;19.80;99.90
63537;DHT22;49686;51.880;5.632;2023-07-29T06:47:21;19.60;99.90
63537;DHT22;49686;51.880;5.632;2023-07-29T06:49:49;19.50;99.90
63537;DHT22;49686;51.880;5.632;2023-07-29T06:52:16;19.30;99.90
63537;DHT22;49686;51.880;5.632;2023-07-29T06:54:42;19.30;99.90
63537;DHT22;49686;51.880;5.632;2023-07-29T06:57:09;18.90;99.90
63537;DHT22;49686;51.880;5.632;2023-07-29T06:59:36;18.50;99.90
63537;DHT22;49686;51.880;5.632;2023-07-29T07:02:03;18.30;99.90
63537;DHT22;49686;51.880;5.632;2023-07-29T07:04:30;18.40;99.90
63537;DHT22;49686;51.880;5.632;2023-07-29T07:06:59;18.50;99.90
63537;DHT22;49686;51.880;5.632;2023-07-29T07:09:25;18.60;99.90
63537;DHT22;49686;51.880;5.632;2023-07-29T07:11:52;18.60;99.90
63537;DHT22;49686;51.880;5.632;2023-07-29T07:14:19;18.80;99.90
63537;DHT22;49686;51.880;5.632;2023-07-29T07:16:46;19.00;99.90
63537;DHT22;49686;51.880;5.632;2023-07-29T07:19:13;19.50;99.90
63537;DHT22;49686;51.880;5.632;2023-07-29T07:21:40;19.90;99.90
63537;DHT22;49686;51.880;5.632;2023-07-29T07:24:08;19.80;99.90
63537;DHT22;49686;51.880;5.632;2023-07-29T07:26:35;19.50;99.90
63537;DHT22;49686;51.880;5.632;2023-07-29T07:29:02;19.30;99.90
63537;DHT22;49686;51.880;5.632;2023-07-29T07:31:32;19.50;99.90
63537;DHT22;49686;51.880;5.632;2023-07-29T07:33:59;19.20;99.90
63537;DHT22;49686;51.880;5.632;2023-07-29T07:36:26;19.10;99.90
63537;DHT22;49686;51.880;5.632;2023-07-29T07:38:53;19.90;99.90
63537;DHT22;49686;51.880;5.632;2023-07-29T07:41:21;21.00;99.90
63537;DHT22;49686;51.880;5.632;2023-07-29T07:43:48;21.90;99.90
63537;DHT22;49686;51.880;5.632;2023-07-29T07:46:15;22.30;99.90
63537;DHT22;49686;51.880;5.632;2023-07-29T07:48:42;21.30;99.90
63537;DHT22;49686;51.880;5.632;2023-07-29T07:51:12;20.40;99.90
63537;DHT22;49686;51.880;5.632;2023-07-29T07:53:39;20.20;99.90
63537;DHT22;49686;51.880;5.632;2023-07-29T07:56:06;20.00;99.90
63537;DHT22;49686;51.880;5.632;2023-07-29T07:58:34;20.30;99.90
63537;DHT22;49686;51.880;5.632;2023-07-29T08:01:02;20.70;99.90
63537;DHT22;49686;51.880;5.632;2023-07-29T08:03:29;20.70;99.90
63537;DHT22;49686;51.880;5.632;2023-07-29T08:05:56;21.10;99.90
63537;DHT22;49686;51.880;5.632;2023-07-29T08:08:23;21.20;99.90
63537;DHT22;49686;51.880;5.632;2023-07-29T08:10:52;21.00;99.90
63537;DHT22;49686;51.880;5.632;2023-07-29T08:13:18;21.10;99.90
63537;DHT22;49686;51.880;5.632;2023-07-29T08:15:47;21.10;99.90
63537;DHT22;49686;51.880;5.632;2023-07-29T08:18:14;21.00;99.90
63537;DHT22;49686;51.880;5.632;2023-07-29T08:20:42;20.70;99.90
63537;DHT22;49686;51.880;5.632;2023-07-29T08:23:17;20.40;99.90
63537;DHT22;49686;51.880;5.632;2023-07-29T08:25:44;20.60;99.90
63537;DHT22;49686;51.880;5.632;2023-07-29T08:28:11;20.90;99.90
63537;DHT22;49686;51.880;5.632;2023-07-29T08:30:38;20.70;99.90
63537;DHT22;49686;51.880;5.632;2023-07-29T08:33:06;20.70;99.90
63537;DHT22;49686;51.880;5.632;2023-07-29T08:35:33;20.40;99.90
63537;DHT22;49686;51.880;5.632;2023-07-29T08:37:59;20.50;99.90
63537;DHT22;49686;51.880;5.632;2023-07-29T08:40:28;20.70;99.90
63537;DHT22;49686;51.880;5.632;2023-07-29T08:42:57;21.20;99.90
63537;DHT22;49686;51.880;5.632;2023-07-29T08:45:25;21.40;99.90
63537;DHT22;49686;51.880;5.632;2023-07-29T08:47:54;21.60;99.90
63537;DHT22;49686;51.880;5.632;2023-07-29T08:50:25;21.30;99.90
63537;DHT22;49686;51.880;5.632;2023-07-29T08:52:52;21.10;99.90
63537;DHT22;49686;51.880;5.632;2023-07-29T08:55:19;20.90;99.90
63537;DHT22;49686;51.880;5.632;2023-07-29T08:57:46;21.00;99.90
63537;DHT22;49686;51.880;5.632;2023-07-29T09:00:13;20.90;99.90
63537;DHT22;49686;51.880;5.632;2023-07-29T09:02:42;20.70;99.90
63537;DHT22;49686;51.880;5.632;2023-07-29T09:05:09;20.60;99.90
63537;DHT22;49686;51.880;5.632;2023-07-29T09:07:38;20.70;99.90
63537;DHT22;49686;51.880;5.632;2023-07-29T09:10:09;21.10;99.90
63537;DHT22;49686;51.880;5.632;2023-07-29T09:12:36;21.20;99.90
63537;DHT22;49686;51.880;5.632;2023-07-29T09:15:03;21.20;99.90
63537;DHT22;49686;51.880;5.632;2023-07-29T09:17:31;21.00;99.90
63537;DHT22;49686;51.880;5.632;2023-07-29T09:19:58;21.10;99.90
63537;DHT22;49686;51.880;5.632;2023-07-29T09:22:27;21.00;99.90
63537;DHT22;49686;51.880;5.632;2023-07-29T09:24:57;20.80;99.90
63537;DHT22;49686;51.880;5.632;2023-07-29T09:27:24;20.90;99.90
63537;DHT22;49686;51.880;5.632;2023-07-29T09:29:52;21.00;99.90
63537;DHT22;49686;51.880;5.632;2023-07-29T09:32:20;21.30;99.90
63537;DHT22;49686;51.880;5.632;2023-07-29T09:34:50;21.90;99.90
63537;DHT22;49686;51.880;5.632;2023-07-29T09:37:17;22.80;99.90
63537;DHT22;49686;51.880;5.632;2023-07-29T09:39:45;22.60;99.90
63537;DHT22;49686;51.880;5.632;2023-07-29T09:42:17;22.00;99.90
63537;DHT22;49686;51.880;5.632;2023-07-29T09:44:45;22.00;99.90
63537;DHT22;49686;51.880;5.632;2023-07-29T09:47:19;22.60;99.90
63537;DHT22;49686;51.880;5.632;2023-07-29T09:49:46;22.70;99.90
63537;DHT22;49686;51.880;5.632;2023-07-29T09:52:15;22.60;99.90
63537;DHT22;49686;51.880;5.632;2023-07-29T09:54:42;22.50;99.90
63537;DHT22;49686;51.880;5.632;2023-07-29T09:57:10;22.00;99.90
63537;DHT22;49686;51.880;5.632;2023-07-29T09:59:38;21.80;99.90
63537;DHT22;49686;51.880;5.632;2023-07-29T10:02:09;21.70;99.90
63537;DHT22;49686;51.880;5.632;2023-07-29T10:04:41;21.80;99.90
63537;DHT22;49686;51.880;5.632;2023-07-29T10:07:08;22.00;99.90
63537;DHT22;49686;51.880;5.632;2023-07-29T10:09:38;21.80;99.90
63537;DHT22;49686;51.880;5.632;2023-07-29T10:12:06;21.60;99.90
63537;DHT22;49686;51.880;5.632;2023-07-29T10:14:35;21.50;99.90
63537;DHT22;49686;51.880;5.632;2023-07-29T10:17:04;21.50;99.90
63537;DHT22;49686;51.880;5.632;2023-07-29T10:19:31;22.00;99.90
63537;DHT22;49686;51.880;5.632;2023-07-29T10:22:00;22.00;99.90
63537;DHT22;49686;51.880;5.632;2023-07-29T10:24:30;22.40;99.90
63537;DHT22;49686;51.880;5.632;2023-07-29T10:26:58;22.70;99.90
63537;DHT22;49686;51.880;5.632;2023-07-29T10:29:31;22.70;99.90
63537;DHT22;49686;51.880;5.632;2023-07-29T10:32:01;22.60;99.90
63537;DHT22;49686;51.880;5.632;2023-07-29T10:34:29;22.40;99.90
63537;DHT22;49686;51.880;5.632;2023-07-29T10:36:57;22.50;99.90
63537;DHT22;49686;51.880;5.632;2023-07-29T10:39:24;22.80;99.90
63537;DHT22;49686;51.880;5.632;2023-07-29T10:41:58;22.80;99.90
63537;DHT22;49686;51.880;5.632;2023-07-29T10:44:50;23.00;99.90
63537;DHT22;49686;51.880;5.632;2023-07-29T10:47:19;23.70;99.90
63537;DHT22;49686;51.880;5.632;2023-07-29T10:49:50;24.40;99.90
63537;DHT22;49686;51.880;5.632;2023-07-29T10:52:32;24.40;99.90
63537;DHT22;49686;51.880;5.632;2023-07-29T10:55:22;24.10;99.90
63537;DHT22;49686;51.880;5.632;2023-07-29T10:57:50;23.80;99.90
63537;DHT22;49686;51.880;5.632;2023-07-29T11:00:19;24.00;99.90
63537;DHT22;49686;51.880;5.632;2023-07-29T11:02:58;23.90;99.90
63537;DHT22;49686;51.880;5.632;2023-07-29T11:05:27;23.00;99.90
63537;DHT22;49686;51.880;5.632;2023-07-29T11:08:19;22.60;99.90
63537;DHT22;49686;51.880;5.632;2023-07-29T11:10:58;22.60;99.90
63537;DHT22;49686;51.880;5.632;2023-07-29T11:13:26;22.80;99.90
63537;DHT22;49686;51.880;5.632;2023-07-29T11:15:54;22.90;99.90
63537;DHT22;49686;51.880;5.632;2023-07-29T11:18:21;23.20;99.90
63537;DHT22;49686;51.880;5.632;2023-07-29T11:20:49;23.20;99.90
63537;DHT22;49686;51.880;5.632;2023-07-29T11:23:16;23.30;99.90
63537;DHT22;49686;51.880;5.632;2023-07-29T11:25:43;22.80;99.90
63537;DHT22;49686;51.880;5.632;2023-07-29T11:28:11;22.70;99.90
63537;DHT22;49686;51.880;5.632;2023-07-29T11:30:39;22.30;99.90
63537;DHT22;49686;51.880;5.632;2023-07-29T11:33:06;21.80;99.90
63537;DHT22;49686;51.880;5.632;2023-07-29T11:35:33;20.80;99.90
63537;DHT22;49686;51.880;5.632;2023-07-29T11:38:01;19.80;99.90
63537;DHT22;49686;51.880;5.632;2023-07-29T11:40:28;19.20;99.90
63537;DHT22;49686;51.880;5.632;2023-07-29T11:42:55;18.80;99.90
63537;DHT22;49686;51.880;5.632;2023-07-29T11:45:22;18.40;99.90
63537;DHT22;49686;51.880;5.632;2023-07-29T11:47:58;18.30;99.90
63537;DHT22;49686;51.880;5.632;2023-07-29T11:50:25;18.10;99.90
63537;DHT22;49686;51.880;5.632;2023-07-29T11:52:52;18.00;99.90
63537;DHT22;49686;51.880;5.632;2023-07-29T11:55:21;17.90;99.90
63537;DHT22;49686;51.880;5.632;2023-07-29T11:57:51;17.70;99.90
63537;DHT22;49686;51.880;5.632;2023-07-29T12:00:18;17.70;99.90
63537;DHT22;49686;51.880;5.632;2023-07-29T12:02:49;17.60;99.90
63537;DHT22;49686;51.880;5.632;2023-07-29T12:05:17;17.60;99.90
63537;DHT22;49686;51.880;5.632;2023-07-29T12:07:45;17.70;99.90
63537;DHT22;49686;51.880;5.632;2023-07-29T12:10:12;17.80;99.90
63537;DHT22;49686;51.880;5.632;2023-07-29T12:12:44;18.10;99.90
63537;DHT22;49686;51.880;5.632;2023-07-29T12:15:11;18.30;99.90
63537;DHT22;49686;51.880;5.632;2023-07-29T12:17:41;18.40;99.90
63537;DHT22;49686;51.880;5.632;2023-07-29T12:20:09;18.50;99.90
63537;DHT22;49686;51.880;5.632;2023-07-29T12:22:36;18.70;99.90
63537;DHT22;49686;51.880;5.632;2023-07-29T12:25:04;18.70;99.90
63537;DHT22;49686;51.880;5.632;2023-07-29T12:27:31;18.60;99.90
63537;DHT22;49686;51.880;5.632;2023-07-29T12:30:01;18.60;99.90
63537;DHT22;49686;51.880;5.632;2023-07-29T12:32:29;18.80;99.90
63537;DHT22;49686;51.880;5.632;2023-07-29T12:34:56;19.10;99.90
63537;DHT22;49686;51.880;5.632;2023-07-29T12:37:31;19.30;99.90
63537;DHT22;49686;51.880;5.632;2023-07-29T12:39:58;19.40;99.90
63537;DHT22;49686;51.880;5.632;2023-07-29T12:42:25;19.60;99.90
63537;DHT22;49686;51.880;5.632;2023-07-29T12:44:52;19.80;99.90
63537;DHT22;49686;51.880;5.632;2023-07-29T12:47:20;19.90;99.90
63537;DHT22;49686;51.880;5.632;2023-07-29T12:49:47;20.00;99.90
63537;DHT22;49686;51.880;5.632;2023-07-29T12:52:13;20.10;99.90
63537;DHT22;49686;51.880;5.632;2023-07-29T12:54:40;20.30;99.90
63537;DHT22;49686;51.880;5.632;2023-07-29T12:57:07;20.80;99.90
63537;DHT22;49686;51.880;5.632;2023-07-29T12:59:34;21.10;99.90
63537;DHT22;49686;51.880;5.632;2023-07-29T13:02:01;20.90;99.90
63537;DHT22;49686;51.880;5.632;2023-07-29T13:04:29;20.90;99.90
63537;DHT22;49686;51.880;5.632;2023-07-29T13:06:56;20.80;99.90
63537;DHT22;49686;51.880;5.632;2023-07-29T13:09:22;20.80;99.90
63537;DHT22;49686;51.880;5.632;2023-07-29T13:11:49;20.50;99.90
63537;DHT22;49686;51.880;5.632;2023-07-29T13:14:16;20.40;99.90
63537;DHT22;49686;51.880;5.632;2023-07-29T13:16:43;21.00;99.90
63537;DHT22;49686;51.880;5.632;2023-07-29T13:19:10;21.60;99.90
63537;DHT22;49686;51.880;5.632;2023-07-29T13:21:38;21.80;99.90
63537;DHT22;49686;51.880;5.632;2023-07-29T13:24:05;22.00;99.90
63537;DHT22;49686;51.880;5.632;2023-07-29T13:26:33;22.40;99.90
63537;DHT22;49686;51.880;5.632;2023-07-29T13:29:00;22.50;99.90
63537;DHT22;49686;51.880;5.632;2023-07-29T13:31:27;22.30;99.90
63537;DHT22;49686;51.880;5.632;2023-07-29T13:33:54;21.80;99.90
63537;DHT22;49686;51.880;5.632;2023-07-29T13:36:21;22.00;99.90
63537;DHT22;49686;51.880;5.632;2023-07-29T13:38:49;21.90;99.90
63537;DHT22;49686;51.880;5.632;2023-07-29T13:41:16;21.90;99.90
63537;DHT22;49686;51.880;5.632;2023-07-29T13:43:42;22.10;99.90
63537;DHT22;49686;51.880;5.632;2023-07-29T13:46:09;22.10;99.90
63537;DHT22;49686;51.880;5.632;2023-07-29T13:48:36;22.00;99.90
63537;DHT22;49686;51.880;5.632;2023-07-29T13:51:03;21.90;99.90
63537;DHT22;49686;51.880;5.632;2023-07-29T13:53:30;22.30;99.90
63537;DHT22;49686;51.880;5.632;2023-07-29T13:55:58;22.70;99.90
63537;DHT22;49686;51.880;5.632;2023-07-29T13:58:25;23.20;99.90
63537;DHT22;49686;51.880;5.632;2023-07-29T14:00:51;23.50;99.90
63537;DHT22;49686;51.880;5.632;2023-07-29T14:03:18;23.60;99.90
63537;DHT22;49686;51.880;5.632;2023-07-29T14:05:45;23.60;99.90
63537;DHT22;49686;51.880;5.632;2023-07-29T14:08:12;23.20;99.90
63537;DHT22;49686;51.880;5.632;2023-07-29T14:10:39;22.90;99.90
63537;DHT22;49686;51.880;5.632;2023-07-29T14:13:07;22.80;99.90
63537;DHT22;49686;51.880;5.632;2023-07-29T14:15:34;22.70;99.90
63537;DHT22;49686;51.880;5.632;2023-07-29T14:18:01;22.70;99.90
63537;DHT22;49686;51.880;5.632;2023-07-29T14:20:28;22.60;99.90
63537;DHT22;49686;51.880;5.632;2023-07-29T14:22:55;22.80;99.90
63537;DHT22;49686;51.880;5.632;2023-07-29T14:25:22;22.60;99.90
63537;DHT22;49686;51.880;5.632;2023-07-29T14:27:48;22.50;99.90
63537;DHT22;49686;51.880;5.632;2023-07-29T14:30:17;22.30;99.90
63537;DHT22;49686;51.880;5.632;2023-07-29T14:32:44;22.60;99.90
63537;DHT22;49686;51.880;5.632;2023-07-29T14:35:11;22.90;99.90
63537;DHT22;49686;51.880;5.632;2023-07-29T14:37:37;22.80;99.90
63537;DHT22;49686;51.880;5.632;2023-07-29T14:40:05;22.90;99.90
63537;DHT22;49686;51.880;5.632;2023-07-29T14:42:32;23.40;99.90
63537;DHT22;49686;51.880;5.632;2023-07-29T14:45:02;23.70;99.90
63537;DHT22;49686;51.880;5.632;2023-07-29T14:47:30;24.00;99.90
63537;DHT22;49686;51.880;5.632;2023-07-29T14:49:57;24.00;99.90
63537;DHT22;49686;51.880;5.632;2023-07-29T14:52:24;23.90;99.90
63537;DHT22;49686;51.880;5.632;2023-07-29T14:54:52;23.90;99.90
63537;DHT22;49686;51.880;5.632;2023-07-29T14:57:18;23.40;99.90
63537;DHT22;49686;51.880;5.632;2023-07-29T14:59:45;23.30;99.90
63537;DHT22;49686;51.880;5.632;2023-07-29T15:02:12;22.80;99.90
63537;DHT22;49686;51.880;5.632;2023-07-29T15:04:40;22.60;99.90
63537;DHT22;49686;51.880;5.632;2023-07-29T15:07:07;23.00;99.90
63537;DHT22;49686;51.880;5.632;2023-07-29T15:09:34;22.90;99.90
63537;DHT22;49686;51.880;5.632;2023-07-29T15:12:00;23.20;99.90
63537;DHT22;49686;51.880;5.632;2023-07-29T15:14:27;23.70;99.90
63537;DHT22;49686;51.880;5.632;2023-07-29T15:16:54;23.60;99.90
63537;DHT22;49686;51.880;5.632;2023-07-29T15:19:21;23.20;99.90
63537;DHT22;49686;51.880;5.632;2023-07-29T15:21:49;23.00;99.90
63537;DHT22;49686;51.880;5.632;2023-07-29T15:24:16;23.10;99.90
63537;DHT22;49686;51.880;5.632;2023-07-29T15:26:43;23.00;99.90
63537;DHT22;49686;51.880;5.632;2023-07-29T15:29:10;22.80;99.90
63537;DHT22;49686;51.880;5.632;2023-07-29T15:31:37;22.80;99.90
63537;DHT22;49686;51.880;5.632;2023-07-29T15:34:06;22.60;99.90